Time;durP1;ratioP1;P1;durP2;ratioP2;P2;SDS_P1;SDS_P2;PMS_P1;PMS_P2;Temp;Humidity;BMP_temperature;BMP_pressure;BME280_temperature;BME280_humidity;BME280_pressure;Samples;Min_cycle;Max_cycle;Signal;HPM_P1;HPM_P2
2022/10/10 00:00:05;;;;;;;23.05;21.67;;;;;;;12.96;59.37;101355.53;4992806;28;20555;-75
2022/10/10 00:02:30;;;;;;;23.65;21.95;;;;;;;12.95;59.34;101355.78;5010962;28;20041;-75
2022/10/10 00:04:56;;;;;;;24.10;22.60;;;;;;;12.93;59.56;101353.31;5009351;28;20108;-75
2022/10/10 00:07:21;;;;;;;23.58;22.05;;;;;;;12.93;59.39;101357.94;5010258;28;20037;-76
2022/10/10 00:09:46;;;;;;;25.23;23.67;;;;;;;12.92;59.43;101357.09;5004843;28;20189;-76
2022/10/10 00:12:12;;;;;;;23.75;22.25;;;;;;;12.91;59.31;101352.75;5003057;28;20072;-76
2022/10/10 00:14:38;;;;;;;23.40;22.00;;;;;;;12.91;59.48;101352.75;4996478;28;20044;-75
2022/10/10 00:17:04;;;;;;;23.70;22.40;;;;;;;12.89;59.35;101360.28;4990715;28;20042;-76
2022/10/10 00:19:29;;;;;;;22.92;21.63;;;;;;;12.88;59.26;101347.81;5005715;28;20375;-75
2022/10/10 00:21:54;;;;;;;24.33;22.83;;;;;;;12.87;59.23;101340.72;5010449;28;20393;-75
2022/10/10 00:24:20;;;;;;;21.90;20.60;;;;;;;12.87;59.47;101346.16;5007219;28;20038;-75
2022/10/10 00:26:45;;;;;;;24.27;22.45;;;;;;;12.87;59.27;101337.19;4990328;28;20364;-76
2022/10/10 00:29:10;;;;;;;23.13;21.73;;;;;;;12.84;59.46;101335.78;4993004;28;20042;-76
2022/10/10 00:31:36;;;;;;;25.42;23.77;;;;;;;12.84;59.37;101341.22;5005614;28;20030;-76
2022/10/10 00:34:01;;;;;;;24.55;22.95;;;;;;;12.83;59.45;101339.59;4992470;28;20038;-75
2022/10/10 00:36:27;;;;;;;23.13;21.70;;;;;;;12.82;59.15;101331.69;5006065;28;20542;-75
2022/10/10 00:38:52;;;;;;;25.00;23.45;;;;;;;12.81;59.15;101335.47;5008488;28;20100;-76
2022/10/10 00:41:17;;;;;;;23.95;22.45;;;;;;;12.80;59.34;101341.94;5013433;28;20037;-75
2022/10/10 00:44:09;;;;;;;23.65;22.25;;;;;;;12.78;59.41;101331.34;4980739;28;20030;-75
2022/10/10 00:46:35;;;;;;;23.05;21.33;;;;;;;12.77;59.33;101340.53;5003047;28;20508;-76
2022/10/10 00:49:02;;;;;;;24.48;22.70;;;;;;;12.75;59.51;101327.25;5011584;28;20038;-76
2022/10/10 00:51:27;;;;;;;24.42;22.83;;;;;;;12.74;59.19;101328.28;5013593;28;20042;-76
2022/10/10 00:54:01;;;;;;;24.02;22.42;;;;;;;12.74;59.11;101328.28;5008076;28;20027;-76
2022/10/10 00:56:30;;;;;;;23.15;21.75;;;;;;;12.72;59.31;101316.03;4994583;28;20030;-75
2022/10/10 00:59:00;;;;;;;25.65;23.95;;;;;;;12.72;59.44;101313.34;4995284;28;20057;-76
2022/10/10 01:01:26;;;;;;;23.40;22.08;;;;;;;12.71;59.34;101317.13;4998914;28;20034;-75
2022/10/10 01:03:56;;;;;;;25.27;23.58;;;;;;;12.70;59.41;101310.03;4993519;28;20419;-75
2022/10/10 01:06:21;;;;;;;23.00;21.67;;;;;;;12.68;59.40;101315.72;5010783;28;20091;-76
2022/10/10 01:08:47;;;;;;;23.27;21.85;;;;;;;12.68;59.50;101309.50;5012942;28;20470;-76
2022/10/10 01:11:36;;;;;;;22.27;20.92;;;;;;;12.67;59.63;101307.81;5006324;28;20578;-75
2022/10/10 01:14:23;;;;;;;24.92;23.13;;;;;;;12.64;59.30;101306.41;5004962;28;20034;-75
2022/10/10 01:16:57;;;;;;;22.38;21.10;;;;;;;12.62;59.34;101300.41;5000300;28;20043;-77
2022/10/10 01:19:23;;;;;;;22.75;21.15;;;;;;;12.62;59.49;101305.03;5013016;28;20784;-75
2022/10/10 01:22:01;;;;;;;21.60;20.35;;;;;;;12.61;59.31;101303.38;5010947;28;20046;-77
2022/10/10 01:24:35;;;;;;;21.85;20.55;;;;;;;12.60;59.41;101315.28;5008779;28;20038;-76
2022/10/10 01:27:10;;;;;;;23.38;21.92;;;;;;;12.59;59.47;101302.81;4999550;28;20054;-76
2022/10/10 01:29:47;;;;;;;22.35;20.98;;;;;;;12.58;59.51;101309.31;4998060;28;20034;-76
2022/10/10 01:32:26;;;;;;;22.52;21.13;;;;;;;12.56;59.38;101315.75;5004666;28;20055;-76
2022/10/10 01:35:02;;;;;;;22.95;21.52;;;;;;;12.54;59.36;101304.34;5009021;28;20027;-76
2022/10/10 01:37:42;;;;;;;22.58;21.27;;;;;;;12.54;59.34;101306.22;4995463;28;20034;-76
2022/10/10 01:40:16;;;;;;;22.98;21.58;;;;;;;12.52;59.32;101309.19;5004667;28;20060;-75
2022/10/10 01:42:57;;;;;;;22.20;20.75;;;;;;;12.51;59.20;101299.41;4997915;28;20130;-75
2022/10/10 01:45:23;;;;;;;22.90;21.15;;;;;;;12.50;59.43;101305.09;4994284;28;20065;-75
2022/10/10 01:47:51;;;;;;;23.33;21.63;;;;;;;12.49;59.53;101300.72;4998939;28;20058;-76
2022/10/10 01:50:20;;;;;;;23.17;21.77;;;;;;;12.49;59.33;101300.72;4999087;28;20042;-76
2022/10/10 01:52:53;;;;;;;22.58;21.25;;;;;;;12.48;59.21;101304.50;4994165;28;20096;-76
2022/10/10 01:55:46;;;;;;;22.48;21.17;;;;;;;12.45;59.38;101297.69;5011553;28;20470;-76
2022/10/10 01:58:26;;;;;;;21.52;20.33;;;;;;;12.44;59.46;101292.50;5012346;28;20030;-76
2022/10/10 02:01:06;;;;;;;22.42;21.02;;;;;;;12.43;59.53;101291.69;5008160;28;20060;-77
2022/10/10 02:03:39;;;;;;;23.10;21.25;;;;;;;12.42;59.61;101289.19;4992435;28;20034;-75
2022/10/10 02:06:30;;;;;;;24.98;23.27;;;;;;;12.41;59.23;101291.09;5002437;28;20053;-75
2022/10/10 02:09:02;;;;;;;23.88;22.23;;;;;;;12.40;59.43;101283.19;5007219;28;20038;-76
2022/10/10 02:11:30;;;;;;;21.90;20.40;;;;;;;12.39;59.32;101281.56;5004463;28;20390;-75
2022/10/10 02:14:07;;;;;;;22.23;20.73;;;;;;;12.37;59.21;101279.06;5007586;28;20052;-75
2022/10/10 02:16:36;;;;;;;22.50;20.90;;;;;;;12.36;59.52;101277.44;5008464;28;20070;-76
2022/10/10 02:19:07;;;;;;;23.77;22.20;;;;;;;12.36;59.47;101276.63;4992109;28;20033;-76
2022/10/10 02:21:33;;;;;;;22.60;21.17;;;;;;;12.34;59.27;101269.53;5010457;28;20065;-74
2022/10/10 02:24:02;;;;;;;25.98;24.25;;;;;;;12.32;59.45;101271.69;5006580;28;20076;-75
2022/10/10 02:26:31;;;;;;;22.15;20.67;;;;;;;12.32;59.28;101265.44;4993919;28;20501;-75
2022/10/10 02:29:02;;;;;;;23.08;21.70;;;;;;;12.32;59.52;101260.88;4989589;28;20030;-75
2022/10/10 02:31:53;;;;;;;23.85;22.25;;;;;;;12.29;59.40;101253.19;5005790;28;20026;-75
2022/10/10 02:34:24;;;;;;;23.02;21.50;;;;;;;12.28;59.28;101259.69;5000077;28;20046;-75
2022/10/10 02:36:57;;;;;;;22.85;21.35;;;;;;;12.27;59.50;101249.94;5002708;28;20053;-75
2022/10/10 02:39:28;;;;;;;22.67;21.27;;;;;;;12.26;59.61;101247.44;4992304;28;20053;-75
2022/10/10 02:41:54;;;;;;;22.67;21.23;;;;;;;12.26;59.33;101252.88;5004393;28;20026;-76
2022/10/10 02:44:22;;;;;;;21.83;20.52;;;;;;;12.25;59.50;101245.81;4991565;28;20064;-76
2022/10/10 02:46:47;;;;;;;21.15;19.85;;;;;;;12.24;59.20;101247.69;4996078;28;20060;-75
2022/10/10 02:49:13;;;;;;;24.13;22.50;;;;;;;12.23;59.12;101246.03;5009465;28;20137;-76
2022/10/10 02:51:38;;;;;;;22.80;21.30;;;;;;;12.22;59.43;101240.84;5002372;28;20116;-76
2022/10/10 02:54:05;;;;;;;21.60;20.23;;;;;;;12.21;59.39;101244.66;5010535;28;20392;-76
2022/10/10 02:56:31;;;;;;;23.20;20.40;;;;;;;12.20;59.38;101234.88;4994319;28;20045;-75
2022/10/10 02:58:56;;;;;;;22.73;21.33;;;;;;;12.18;59.37;101235.13;5002527;28;20031;-76
2022/10/10 03:01:22;;;;;;;22.27;20.92;;;;;;;12.19;59.38;101233.22;4978581;28;20037;-76
2022/10/10 03:03:47;;;;;;;22.10;20.65;;;;;;;12.17;59.38;101222.66;4999044;28;20065;-76
2022/10/10 03:06:13;;;;;;;23.23;21.73;;;;;;;12.16;59.37;101226.41;5010188;28;20046;-76
2022/10/10 03:08:38;;;;;;;22.58;21.17;;;;;;;12.16;59.41;101231.00;4998048;28;20576;-76
2022/10/10 03:11:05;;;;;;;23.42;21.92;;;;;;;12.15;59.40;101232.91;4990886;28;20057;-76
2022/10/10 03:13:30;;;;;;;22.17;20.83;;;;;;;12.13;59.34;101227.72;4999050;28;20027;-76
2022/10/10 03:15:56;;;;;;;21.23;20.00;;;;;;;12.12;59.42;101226.06;4992446;28;20041;-76
2022/10/10 03:18:22;;;;;;;22.60;21.08;;;;;;;12.13;59.40;101229.59;5010031;28;20037;-76
2022/10/10 03:20:52;;;;;;;23.55;21.60;;;;;;;12.12;59.08;101231.50;5008937;28;20033;-76
2022/10/10 03:23:18;;;;;;;22.65;21.25;;;;;;;12.10;59.46;101225.50;4999370;28;20221;-76
2022/10/10 03:25:44;;;;;;;21.98;20.65;;;;;;;12.10;59.52;101230.91;5010617;28;20383;-76
2022/10/10 03:28:10;;;;;;;23.75;22.15;;;;;;;12.09;59.39;101233.84;4997388;28;20150;-76
2022/10/10 03:30:36;;;;;;;21.55;20.23;;;;;;;12.07;59.32;101228.69;4991178;28;20042;-76
2022/10/10 03:33:01;;;;;;;22.42;21.00;;;;;;;12.08;59.26;101233.03;4992900;28;20038;-77
2022/10/10 03:35:27;;;;;;;21.65;20.17;;;;;;;12.07;59.34;101233.25;5002711;28;20026;-73
2022/10/10 03:37:52;;;;;;;23.52;21.92;;;;;;;12.05;59.20;101235.41;4997539;28;20389;-75
2022/10/10 03:40:18;;;;;;;22.65;21.23;;;;;;;12.04;59.45;101231.84;4992072;28;20026;-75
2022/10/10 03:42:43;;;;;;;21.13;19.83;;;;;;;12.04;59.22;101233.75;4999684;28;20448;-75
2022/10/10 03:45:09;;;;;;;22.13;20.75;;;;;;;12.02;59.17;101228.59;5006263;28;20402;-76
2022/10/10 03:47:34;;;;;;;22.00;20.60;;;;;;;12.02;59.31;101230.44;4994174;28;20034;-76
2022/10/10 03:49:59;;;;;;;21.75;20.38;;;;;;;12.00;59.11;101235.31;5009499;28;20038;-76
2022/10/10 03:52:25;;;;;;;21.98;20.67;;;;;;;11.99;59.37;101230.94;4992720;28;20092;-76
2022/10/10 03:54:50;;;;;;;20.90;19.50;;;;;;;11.97;59.72;101228.47;5006492;28;20398;-75
2022/10/10 03:57:16;;;;;;;24.00;22.50;;;;;;;11.97;59.40;101233.06;4994921;28;20035;-76
2022/10/10 03:59:41;;;;;;;21.10;19.90;;;;;;;11.95;59.45;101227.91;5003466;28;20112;-76
2022/10/10 04:02:06;;;;;;;22.70;21.13;;;;;;;11.94;59.09;101226.22;5008893;28;20062;-76
2022/10/10 04:04:32;;;;;;;21.13;19.80;;;;;;;11.94;59.23;101220.00;4993542;28;20073;-76
2022/10/10 04:06:57;;;;;;;21.95;20.70;;;;;;;11.93;59.26;101221.06;4983520;28;20378;-76
2022/10/10 04:09:23;;;;;;;22.35;20.75;;;;;;;11.92;59.39;101217.56;4991110;28;20665;-76
2022/10/10 04:11:48;;;;;;;21.92;20.42;;;;;;;11.91;59.31;101221.31;5011692;28;20036;-76
2022/10/10 04:14:13;;;;;;;22.85;21.45;;;;;;;11.90;59.29;101227.78;5011765;28;20034;-76
2022/10/10 04:16:39;;;;;;;21.05;19.65;;;;;;;11.89;59.22;101218.00;4991763;28;20607;-75
2022/10/10 04:19:04;;;;;;;21.13;19.77;;;;;;;11.88;59.23;101221.78;4996839;28;20033;-76
2022/10/10 04:21:30;;;;;;;22.40;20.92;;;;;;;11.86;59.57;101218.47;5013224;28;20056;-76
2022/10/10 04:23:55;;;;;;;21.38;19.92;;;;;;;11.85;59.23;101228.47;5008656;28;20038;-76
2022/10/10 04:26:21;;;;;;;23.52;21.67;;;;;;;11.84;59.34;101226.84;4997180;28;20045;-76
2022/10/10 04:28:46;;;;;;;21.90;20.48;;;;;;;11.83;59.46;101217.06;5000569;28;20041;-76
2022/10/10 04:31:12;;;;;;;23.70;21.90;;;;;;;11.83;59.32;101224.38;5012951;28;20030;-76
2022/10/10 04:33:37;;;;;;;20.85;19.27;;;;;;;11.82;59.34;101222.72;5012072;28;20410;-76
2022/10/10 04:36:03;;;;;;;19.77;18.40;;;;;;;11.81;59.19;101224.59;5004577;28;20064;-76
2022/10/10 04:38:28;;;;;;;19.60;18.40;;;;;;;11.80;59.27;101222.97;4995154;28;20125;-76
2022/10/10 04:40:54;;;;;;;21.42;20.05;;;;;;;11.79;59.24;101229.44;4994334;28;20069;-75
2022/10/10 04:43:19;;;;;;;22.58;20.92;;;;;;;11.78;59.20;101224.25;4995301;28;20126;-75
2022/10/10 04:45:45;;;;;;;20.02;18.83;;;;;;;11.77;59.14;101217.19;4998058;28;20062;-76
2022/10/10 04:48:10;;;;;;;20.35;19.08;;;;;;;11.76;59.47;101224.47;5007618;28;20467;-75
2022/10/10 04:50:36;;;;;;;21.92;20.25;;;;;;;11.74;59.31;101223.88;4995568;28;20038;-74
2022/10/10 04:53:01;;;;;;;20.58;19.27;;;;;;;11.74;59.35;101225.78;4995468;28;20038;-74
2022/10/10 04:55:27;;;;;;;21.08;19.60;;;;;;;11.73;59.30;101214.16;4979380;28;20053;-74
2022/10/10 04:57:52;;;;;;;20.42;19.15;;;;;;;11.72;59.28;101225.19;4996980;28;20360;-75
2022/10/10 05:00:18;;;;;;;21.27;19.90;;;;;;;11.70;59.22;101220.84;5003084;28;20116;-74
2022/10/10 05:02:43;;;;;;;21.83;20.42;;;;;;;11.70;59.29;101220.03;5013131;28;20037;-74
2022/10/10 05:05:09;;;;;;;21.38;19.77;;;;;;;11.68;59.28;101212.16;5002844;28;20375;-75
2022/10/10 05:07:34;;;;;;;19.17;17.92;;;;;;;11.68;59.46;101216.75;4995057;28;20117;-76
2022/10/10 05:09:59;;;;;;;22.35;20.63;;;;;;;11.67;59.26;101217.81;5011843;28;20049;-75
2022/10/10 05:12:25;;;;;;;22.40;20.90;;;;;;;11.66;59.28;101213.44;5012327;28;20375;-75
2022/10/10 05:14:50;;;;;;;20.95;19.38;;;;;;;11.63;59.33;101212.03;5009992;28;20034;-75
2022/10/10 05:17:15;;;;;;;21.80;20.40;;;;;;;11.63;59.37;101220.16;4999727;28;20034;-75
2022/10/10 05:19:41;;;;;;;20.30;19.10;;;;;;;11.62;59.44;101225.81;5001412;28;20033;-74
2022/10/10 05:22:06;;;;;;;21.60;20.33;;;;;;;11.60;59.54;101217.94;4994136;28;20042;-75
2022/10/10 05:24:33;;;;;;;21.58;20.25;;;;;;;11.60;59.46;101209.00;5011493;28;20033;-75
2022/10/10 05:26:59;;;;;;;21.83;20.38;;;;;;;11.58;59.48;101217.34;5012038;28;20502;-75
2022/10/10 05:29:24;;;;;;;22.48;21.08;;;;;;;11.58;59.25;101219.22;5000833;28;20102;-75
2022/10/10 05:31:49;;;;;;;20.60;19.40;;;;;;;11.56;59.34;101222.16;4997832;28;20045;-75
2022/10/10 05:34:15;;;;;;;21.90;20.48;;;;;;;11.55;59.26;101220.53;5010393;28;20034;-75
2022/10/10 05:36:41;;;;;;;19.13;18.13;;;;;;;11.55;59.35;101227.84;5005284;28;20064;-75
2022/10/10 05:39:06;;;;;;;20.35;19.15;;;;;;;11.55;59.43;101227.84;4994081;28;20109;-76
2022/10/10 05:41:32;;;;;;;20.13;18.92;;;;;;;11.52;59.26;101226.41;5001432;28;20018;-75
2022/10/10 05:43:57;;;;;;;20.00;18.42;;;;;;;11.51;59.22;101219.34;5010591;28;20116;-75
2022/10/10 05:46:25;;;;;;;22.13;20.63;;;;;;;11.50;58.93;101217.72;5002537;28;20054;-76
2022/10/10 05:48:52;;;;;;;19.63;18.48;;;;;;;11.50;59.10;101217.72;5012557;28;20032;-76
2022/10/10 05:51:18;;;;;;;19.85;18.60;;;;;;;11.48;59.34;101217.94;4984500;28;20038;-76
2022/10/10 05:53:43;;;;;;;20.98;19.70;;;;;;;11.46;59.25;101217.38;4999866;28;20122;-76
2022/10/10 05:56:10;;;;;;;19.90;18.70;;;;;;;11.46;59.27;101222.78;4975766;28;20462;-76
2022/10/10 05:58:36;;;;;;;21.73;20.33;;;;;;;11.44;59.13;101219.50;5011786;28;20084;-76
2022/10/10 06:01:04;;;;;;;20.73;19.17;;;;;;;11.44;59.35;101219.50;4992282;28;20034;-76
2022/10/10 06:03:29;;;;;;;21.73;20.30;;;;;;;11.44;59.29;101224.06;5001876;28;20072;-76
2022/10/10 06:05:55;;;;;;;19.92;18.73;;;;;;;11.42;59.25;101229.72;5013262;28;20069;-76
2022/10/10 06:08:20;;;;;;;21.73;20.27;;;;;;;11.42;59.12;101220.78;5004254;28;20038;-77
2022/10/10 06:10:46;;;;;;;21.02;19.70;;;;;;;11.41;59.21;101227.25;4965771;28;20151;-75
2022/10/10 06:13:14;;;;;;;20.63;19.08;;;;;;;11.40;59.27;101231.84;5003281;28;20041;-75
2022/10/10 06:15:40;;;;;;;20.25;19.05;;;;;;;11.39;59.08;101230.19;4995878;28;20070;-76
2022/10/10 06:18:06;;;;;;;19.80;18.65;;;;;;;11.38;59.04;101235.84;4983988;28;20127;-75
2022/10/10 06:20:36;;;;;;;21.60;20.20;;;;;;;11.38;59.42;101236.66;4991568;28;20058;-75
2022/10/10 06:23:01;;;;;;;22.10;20.30;;;;;;;11.37;59.28;101234.19;4995697;28;20475;-75
2022/10/10 06:25:27;;;;;;;21.95;20.58;;;;;;;11.35;59.09;101237.13;4998555;28;20045;-76
2022/10/10 06:27:52;;;;;;;21.23;19.73;;;;;;;11.35;59.20;101244.44;4985626;28;20037;-75
2022/10/10 06:30:17;;;;;;;21.05;19.67;;;;;;;11.35;59.41;101239.00;4981738;28;20439;-76
2022/10/10 06:32:43;;;;;;;20.77;19.45;;;;;;;11.34;59.20;101240.06;4998414;28;20046;-75
2022/10/10 06:35:08;;;;;;;24.58;22.77;;;;;;;11.34;59.39;101248.16;5002156;28;20130;-75
2022/10/10 06:37:34;;;;;;;21.80;19.67;;;;;;;11.33;59.35;101250.06;5001555;28;20053;-75
2022/10/10 06:39:59;;;;;;;20.77;19.08;;;;;;;11.32;59.25;101250.31;5000277;28;20105;-74
2022/10/10 06:42:25;;;;;;;22.10;20.25;;;;;;;11.31;59.04;101240.53;5007548;28;20049;-76
2022/10/10 06:44:50;;;;;;;20.77;19.17;;;;;;;11.30;59.30;101245.13;5005207;28;20447;-75
2022/10/10 06:47:15;;;;;;;20.55;19.15;;;;;;;11.29;59.46;101254.31;5005784;28;20042;-75
2022/10/10 06:49:41;;;;;;;21.02;19.63;;;;;;;11.29;59.38;101264.28;5007276;28;21035;-75
2022/10/10 06:52:07;;;;;;;20.45;19.02;;;;;;;11.29;59.44;101256.16;5000608;28;20061;-74
2022/10/10 06:54:32;;;;;;;22.33;20.75;;;;;;;11.27;59.45;101259.94;5000783;28;20045;-75
2022/10/10 06:56:57;;;;;;;22.45;20.80;;;;;;;11.27;59.45;101262.66;5004265;28;20087;-75
2022/10/10 06:59:23;;;;;;;20.67;19.17;;;;;;;11.26;59.42;101260.16;5003742;28;20046;-76
2022/10/10 07:01:48;;;;;;;21.33;19.63;;;;;;;11.26;59.57;101260.16;5006414;28;20147;-74
2022/10/10 07:04:14;;;;;;;20.15;18.40;;;;;;;11.25;59.47;101263.94;5005033;28;20046;-75
2022/10/10 07:06:40;;;;;;;20.52;19.02;;;;;;;11.25;59.48;101269.34;5004067;28;20026;-75
2022/10/10 07:09:05;;;;;;;21.83;20.40;;;;;;;11.24;59.70;101270.41;4986005;28;20080;-75
2022/10/10 07:11:31;;;;;;;21.13;19.23;;;;;;;11.23;59.59;101258.75;5003596;28;20463;-75
2022/10/10 07:13:57;;;;;;;22.33;20.77;;;;;;;11.23;59.60;101260.63;4999339;28;20050;-74
2022/10/10 07:16:22;;;;;;;21.45;19.65;;;;;;;11.23;59.72;101260.63;5006147;28;20068;-75
2022/10/10 07:18:48;;;;;;;20.40;19.10;;;;;;;11.22;60.01;101265.22;5003005;28;20030;-75
2022/10/10 07:21:13;;;;;;;20.00;18.63;;;;;;;11.21;59.69;101268.16;5003982;28;20030;-75
2022/10/10 07:23:39;;;;;;;21.13;19.55;;;;;;;11.21;59.94;101268.16;5005528;28;20852;-75
2022/10/10 07:26:09;;;;;;;19.60;18.23;;;;;;;11.19;59.73;101273.81;5002275;28;20481;-75
2022/10/10 07:28:35;;;;;;;19.63;18.23;;;;;;;11.19;59.93;101264.88;4997904;28;20084;-75
2022/10/10 07:31:04;;;;;;;22.90;21.25;;;;;;;11.20;60.08;101271.94;5003527;28;20030;-75
2022/10/10 07:33:32;;;;;;;22.00;20.35;;;;;;;11.19;59.93;101278.41;5000180;28;20037;-76
2022/10/10 07:35:57;;;;;;;22.27;20.70;;;;;;;11.19;60.06;101279.22;5001430;28;20029;-75
2022/10/10 07:38:22;;;;;;;22.70;20.67;;;;;;;11.19;60.13;101281.13;5001859;28;20174;-75
2022/10/10 07:40:48;;;;;;;20.88;19.25;;;;;;;11.20;60.21;101288.16;5007062;28;20061;-73
2022/10/10 07:43:13;;;;;;;23.05;21.00;;;;;;;11.19;60.19;101289.22;5003454;28;20061;-75
2022/10/10 07:45:38;;;;;;;27.88;21.15;;;;;;;11.19;60.42;101295.44;5004205;28;20161;-75
2022/10/10 07:48:04;;;;;;;23.52;20.88;;;;;;;11.18;60.33;101291.06;5004257;28;20053;-75
2022/10/10 07:50:29;;;;;;;21.85;20.35;;;;;;;11.20;60.53;101296.25;5002103;28;20037;-75
2022/10/10 07:52:55;;;;;;;21.15;19.77;;;;;;;11.19;60.60;101295.44;5004908;28;20030;-76
2022/10/10 07:55:20;;;;;;;23.67;21.80;;;;;;;11.20;60.81;101293.56;5005080;28;20091;-75
2022/10/10 07:57:46;;;;;;;21.60;20.15;;;;;;;11.19;60.89;101290.03;5005722;28;20042;-74
2022/10/10 08:00:13;;;;;;;22.42;20.52;;;;;;;11.20;60.90;101296.25;5007651;28;20032;-75
2022/10/10 08:02:38;;;;;;;21.67;20.10;;;;;;;11.21;61.10;101297.91;5003778;28;20104;-76
2022/10/10 08:05:04;;;;;;;22.75;20.90;;;;;;;11.21;61.30;101295.19;5001023;28;20125;-75
2022/10/10 08:07:29;;;;;;;23.40;21.25;;;;;;;11.21;61.48;101304.16;5005971;28;20470;-76
2022/10/10 08:09:55;;;;;;;21.95;20.15;;;;;;;11.21;61.77;101306.84;4990215;28;20042;-75
2022/10/10 08:12:20;;;;;;;22.17;20.23;;;;;;;11.21;61.51;101309.56;5003851;28;20065;-75
2022/10/10 08:14:45;;;;;;;21.90;20.35;;;;;;;11.21;61.56;101312.28;5004599;28;20034;-76
2022/10/10 08:17:11;;;;;;;23.05;21.23;;;;;;;11.21;61.79;101314.97;5004497;28;20077;-75
2022/10/10 08:19:36;;;;;;;23.38;20.88;;;;;;;11.22;61.72;101303.09;4987579;28;20089;-75
2022/10/10 08:22:01;;;;;;;22.42;20.38;;;;;;;11.23;62.08;101312.00;5003853;28;20514;-75
2022/10/10 08:24:27;;;;;;;23.25;21.05;;;;;;;11.23;62.07;101301.19;5002956;28;20037;-74
2022/10/10 08:26:52;;;;;;;21.20;19.08;;;;;;;11.24;61.93;101302.88;5002276;28;20459;-72
2022/10/10 08:29:18;;;;;;;21.63;20.15;;;;;;;11.23;61.96;101304.72;5002982;28;20037;-75
2022/10/10 08:31:43;;;;;;;23.33;21.65;;;;;;;11.25;62.62;101307.19;5005713;28;20513;-74
2022/10/10 08:34:08;;;;;;;20.40;18.90;;;;;;;11.25;62.33;101297.22;5001939;28;20359;-74
2022/10/10 08:36:34;;;;;;;22.08;20.45;;;;;;;11.25;62.07;101301.78;4998590;28;20088;-74
2022/10/10 08:39:00;;;;;;;22.25;20.75;;;;;;;11.27;62.31;101303.22;5000463;28;20386;-75
2022/10/10 08:41:48;;;;;;;22.98;20.92;;;;;;;11.29;62.12;101307.56;4989923;28;20034;-75
2022/10/10 08:44:31;;;;;;;21.65;19.77;;;;;;;11.29;62.21;101303.00;5005393;28;20108;-74
2022/10/10 08:47:09;;;;;;;22.48;20.55;;;;;;;11.30;62.23;101301.91;5004310;28;20096;-74
2022/10/10 08:49:43;;;;;;;24.17;22.27;;;;;;;11.31;62.42;101308.97;5000328;28;20033;-75
2022/10/10 08:52:11;;;;;;;22.63;20.92;;;;;;;11.33;62.53;101308.75;5004094;28;20053;-75
2022/10/10 08:54:38;;;;;;;24.27;22.10;;;;;;;11.34;62.90;101305.81;5002256;28;20026;-74
2022/10/10 08:57:10;;;;;;;25.15;23.02;;;;;;;11.38;64.63;101311.56;5005254;28;20030;-74
2022/10/10 08:59:39;;;;;;;24.95;22.40;;;;;;;11.38;64.20;101309.69;5005070;28;20164;-74
2022/10/10 09:02:29;;;;;;;26.15;23.85;;;;;;;11.40;64.58;101312.16;5005742;28;20040;-74
2022/10/10 09:04:56;;;;;;;21.67;19.98;;;;;;;11.41;64.59;101313.81;5004647;28;20034;-75
2022/10/10 09:07:34;;;;;;;23.08;21.25;;;;;;;11.42;64.93;101310.06;5008687;28;20041;-75
2022/10/10 09:10:11;;;;;;;25.38;23.20;;;;;;;11.44;65.55;101321.44;5002291;28;20033;-75
2022/10/10 09:12:36;;;;;;;25.38;22.92;;;;;;;11.45;65.59;101334.75;5007598;28;20033;-75
2022/10/10 09:15:24;;;;;;;25.70;23.00;;;;;;;11.48;66.10;101330.75;5003561;28;20045;-74
2022/10/10 09:18:17;;;;;;;24.42;22.05;;;;;;;11.51;66.58;101334.88;5006556;28;20108;-74
2022/10/10 09:21:11;;;;;;;25.33;23.17;;;;;;;11.52;66.80;101339.22;5004722;28;20096;-74
2022/10/10 09:24:03;;;;;;;26.08;23.08;;;;;;;11.53;66.77;101341.69;5005821;28;20026;-73
2022/10/10 09:26:35;;;;;;;23.42;21.65;;;;;;;11.55;66.81;101350.41;5003740;28;20042;-74
2022/10/10 09:29:13;;;;;;;26.02;23.77;;;;;;;11.57;66.66;101333.94;5001467;28;20398;-73
2022/10/10 09:31:48;;;;;;;28.55;23.88;;;;;;;11.58;66.50;101349.91;5005079;28;20077;-74
2022/10/10 09:34:18;;;;;;;22.77;21.08;;;;;;;11.60;66.62;101347.81;5005265;28;20431;-72
2022/10/10 09:36:46;;;;;;;26.88;24.70;;;;;;;11.63;66.98;101349.22;5005418;28;20048;-75
2022/10/10 09:39:31;;;;;;;24.95;22.80;;;;;;;11.66;67.25;101359.56;5005616;28;20058;-74
2022/10/10 09:42:00;;;;;;;25.58;22.75;;;;;;;11.69;67.36;101356.38;4993098;28;20041;-74
2022/10/10 09:44:25;;;;;;;24.27;22.17;;;;;;;11.70;67.41;101367.00;5005888;28;20034;-74
2022/10/10 09:46:52;;;;;;;24.33;22.42;;;;;;;11.73;67.36;101367.59;5002696;28;20657;-76
2022/10/10 09:49:18;;;;;;;24.50;22.25;;;;;;;11.78;67.72;101373.13;5002373;28;20398;-76
2022/10/10 09:51:45;;;;;;;25.42;23.20;;;;;;;11.82;67.82;101366.19;5004277;28;20093;-76
2022/10/10 09:54:13;;;;;;;28.77;25.02;;;;;;;11.86;68.28;101370.06;5006953;28;20433;-76
2022/10/10 09:56:52;;;;;;;26.27;23.67;;;;;;;11.88;68.57;101367.97;5007778;28;20026;-76
2022/10/10 09:59:46;;;;;;;;;;;;;;;11.89;68.43;101372.31;5003822;28;20443;-77
2022/10/10 10:02:23;;;;;;;25.70;23.30;;;;;;;11.90;68.24;101368.56;5001346;28;20062;-76
2022/10/10 10:04:50;;;;;;;26.13;23.85;;;;;;;11.91;68.25;101370.19;5009074;28;20038;-74
2022/10/10 10:07:30;;;;;;;25.23;22.77;;;;;;;11.93;68.55;101368.09;5008470;28;20040;-76
2022/10/10 10:10:03;;;;;;;25.83;23.20;;;;;;;11.96;68.77;101364.09;5004899;28;20069;-76
2022/10/10 10:12:40;;;;;;;25.95;23.58;;;;;;;11.99;69.24;101366.31;5008662;28;20037;-75
2022/10/10 10:15:20;;;;;;;25.85;23.77;;;;;;;12.02;69.00;101371.25;5008887;28;20033;-76
2022/10/10 10:18:20;;;;;;;27.25;24.92;;;;;;;12.05;69.06;101374.31;5006229;28;20033;-75
2022/10/10 10:21:19;;;;;;;27.35;24.85;;;;;;;12.09;69.50;101377.38;5001360;28;20375;-75
2022/10/10 10:23:55;;;;;;;25.25;22.88;;;;;;;12.13;69.11;101383.97;5001221;28;20486;-75
2022/10/10 10:26:40;;;;;;;26.73;23.95;;;;;;;12.16;69.59;101388.06;5007232;28;20037;-76
2022/10/10 10:29:27;;;;;;;24.65;22.52;;;;;;;12.18;68.97;101385.97;5007711;28;20052;-76
2022/10/10 10:31:57;;;;;;;27.23;25.13;;;;;;;12.21;68.81;101388.19;5007416;28;20038;-74
2022/10/10 10:34:46;;;;;;;28.33;25.83;;;;;;;12.27;69.31;101379.09;5008478;28;20442;-76
2022/10/10 10:37:19;;;;;;;25.13;23.20;;;;;;;12.34;69.16;101387.94;5006292;28;20537;-76
2022/10/10 10:40:15;;;;;;;27.15;24.70;;;;;;;12.40;69.11;101403.25;5004271;28;20045;-75
2022/10/10 10:43:16;;;;;;;27.13;24.73;;;;;;;12.43;68.94;101405.47;5005132;28;20042;-74
2022/10/10 10:45:59;;;;;;;27.95;25.52;;;;;;;12.47;69.06;101416.63;4955607;28;20050;-75
2022/10/10 10:48:43;;;;;;;27.67;25.27;;;;;;;12.51;69.21;101406.97;5004407;28;20026;-76
2022/10/10 10:51:39;;;;;;;26.70;23.70;;;;;;;12.54;69.79;101414.63;5004885;28;20034;-76
2022/10/10 10:54:26;;;;;;;27.60;25.02;;;;;;;12.58;69.49;101415.00;5001941;28;20038;-75
2022/10/10 10:57:12;;;;;;;29.77;27.13;;;;;;;12.60;69.55;101418.25;5002852;28;20034;-75
2022/10/10 10:59:58;;;;;;;26.73;24.63;;;;;;;12.64;69.79;101431.09;5006053;28;20104;-76
2022/10/10 11:02:39;;;;;;;27.40;25.13;;;;;;;12.68;69.83;101429.56;5005045;28;20034;-75
2022/10/10 11:05:26;;;;;;;26.52;23.92;;;;;;;12.72;69.92;101435.31;5007193;28;20064;-76
2022/10/10 11:08:22;;;;;;;27.48;25.00;;;;;;;12.74;69.50;101434.00;5001302;28;20038;-76
2022/10/10 11:11:08;;;;;;;27.05;24.95;;;;;;;12.76;68.34;101440.03;5003996;28;20792;-76
2022/10/10 11:13:51;;;;;;;23.27;21.77;;;;;;;12.78;67.38;101440.63;4991998;28;20439;-76
2022/10/10 11:16:27;;;;;;;25.10;23.17;;;;;;;12.83;68.24;101442.63;5003909;28;20037;-76
2022/10/10 11:18:56;;;;;;;27.27;25.13;;;;;;;12.87;68.34;101427.50;4996439;28;20478;-75
2022/10/10 11:21:25;;;;;;;24.13;22.50;;;;;;;12.91;68.47;101430.56;5003419;28;20076;-75